Aeroporto :
LOGIN :

Iscrizione | Disclaimer

   EN    FR    IT 

 










Sommario :    VFR   VFR Marginale   IFR   IFR Intensivo   IFR Molto Intensivo
Visibilità : 
Base nubi : 
>= 8 km
>= 3000ft
5 / 8 km
1000 / 3000 ft
1500m / 5 km
500 / 1000 ft
800 / 1500m
200 / 500 ft
< 800m
< 200 ft
Simboli :   Temporali  Nebbia  Neve Forte  Precipitazioni Forti  Vento > 20 kt
SIGMETs :   Varie  Temporali  Ghiacco  Turbolenza  Onda orograficha  Ceneri Vulcaniche






- Altitudine del aeroporto : 11 ft
- Codice IATA : MJV


LELC - Murcia San Javier

ULTIMO METAR :
  • 130200Z AUTO 35008KT CAVOK 23/21 Q1016

METARs OBSOLETI :
  • 130130Z AUTO 33006KT CAVOK 23/21 Q1017
  • 130100Z AUTO 33005KT 9999 -RA FEW036 24/22 Q1017
  • 130030Z AUTO 34007KT CAVOK 24/21 Q1017
  • 130000Z AUTO 35007KT 9000 NSC 24/21 Q1017
  • 122330Z AUTO 34006KT CAVOK 24/21 Q1018

TAF TAF LELC
Valido dal 13 a 00 ore il 14 a 00 ore UTC


122300Z 1300/1324 36008KT CAVOK TX30/1312Z TN23/1305Z
BECMG 1306/1309 06012KT
BECMG 1319/1322 36006KT



MetMap, La meteo Aeronautica in un colpo d'occhio ! - Copyright ORBIFLY Dicembre 2007 - Disclaimer

ORBIFLY MET'MAP TEAM :

Programmazione e sviluppo : Alexandra Zaïnal
Concezione : Baudouin d'Aumeries
Aiuto per la programmazione : Marc-Olivier Méhu
Supporto tecnico e logistico : Manuel Goepfert
Aiuto per la traduzione : Arnaldo La Scala

Contatto : metmap@orbifly.com




FONTI E CREDITI :

   NOAA